Time;durP1;ratioP1;P1;durP2;ratioP2;P2;SDS_P1;SDS_P2;PMS_P1;PMS_P2;Temp;Humidity;BMP_temperature;BMP_pressure;BME280_temperature;BME280_humidity;BME280_pressure;Samples;Min_cycle;Max_cycle;Signal;HPM_P1;HPM_P2
2021/06/14 00:02:01;;;;;;;5.50;2.55;;;;;;;13.14;91.29;97019.22;5036437;28;20204;-67
2021/06/14 00:04:28;;;;;;;7.07;2.88;;;;;;;13.09;90.73;97013.59;5038026;28;20217;-67
2021/06/14 00:06:54;;;;;;;7.47;2.65;;;;;;;13.08;90.68;97011.94;5036123;28;20209;-67
2021/06/14 00:09:24;;;;;;;5.35;2.58;;;;;;;12.93;92.74;97016.31;5035286;28;20996;-67
2021/06/14 00:11:52;;;;;;;6.32;2.80;;;;;;;12.93;93.19;97011.88;5036999;28;20320;-68
2021/06/14 00:14:18;;;;;;;4.00;2.80;;;;;;;12.94;93.20;97016.13;5036310;28;20272;-68
2021/06/14 00:16:46;;;;;;;6.47;2.83;;;;;;;12.86;94.28;97007.44;5036520;28;20211;-67
2021/06/14 00:19:13;;;;;;;5.40;3.03;;;;;;;12.81;95.47;97009.75;5036365;28;20201;-68
2021/06/14 00:21:40;;;;;;;5.88;3.13;;;;;;;12.86;95.55;97002.16;5036496;28;20208;-68
2021/06/14 00:24:08;;;;;;;4.65;2.95;;;;;;;12.82;95.96;97001.63;5036318;28;20228;-67
2021/06/14 00:26:36;;;;;;;7.65;2.90;;;;;;;12.89;94.87;97007.09;5035718;28;20681;-68
2021/06/14 00:29:03;;;;;;;7.32;2.90;;;;;;;12.95;93.80;97001.13;5036413;28;20255;-67
2021/06/14 00:31:30;;;;;;;4.55;3.13;;;;;;;12.86;93.44;97005.59;5036346;28;20205;-67
2021/06/14 00:33:57;;;;;;;5.75;2.97;;;;;;;12.80;93.72;97000.16;5036653;28;20247;-68
2021/06/14 00:36:23;;;;;;;8.65;2.65;;;;;;;12.77;92.71;96998.66;5036109;28;20223;-68
2021/06/14 00:38:50;;;;;;;10.10;2.63;;;;;;;12.71;88.95;96993.25;5036392;28;20205;-67
2021/06/14 00:41:18;;;;;;;8.32;2.60;;;;;;;12.62;90.04;96986.34;5036101;28;20205;-67
2021/06/14 00:43:47;;;;;;;4.18;2.55;;;;;;;12.57;92.53;96982.56;5034485;28;20217;-67
2021/06/14 00:46:14;;;;;;;6.70;2.70;;;;;;;12.42;93.83;96992.19;5035620;28;20553;-68
2021/06/14 00:48:40;;;;;;;6.50;2.75;;;;;;;12.45;94.55;96987.41;5036626;28;20205;-67
2021/06/14 00:51:09;;;;;;;5.72;3.00;;;;;;;12.43;94.81;96988.56;5036146;28;20209;-67
2021/06/14 00:53:37;;;;;;;5.50;3.10;;;;;;;12.18;97.15;96982.53;5036028;28;20221;-67
2021/06/14 00:56:06;;;;;;;8.00;2.83;;;;;;;12.40;96.34;96992.38;5035470;28;20216;-67
2021/06/14 00:58:33;;;;;;;5.97;2.90;;;;;;;12.39;96.24;96985.44;5036544;28;20197;-67
2021/06/14 01:01:00;;;;;;;6.45;2.72;;;;;;;12.38;94.34;96975.84;5036537;28;20212;-68
2021/06/14 01:03:27;;;;;;;7.15;3.22;;;;;;;12.46;94.37;96975.84;5035956;28;20656;-67
2021/06/14 01:05:58;;;;;;;5.33;3.03;;;;;;;12.49;92.74;96972.03;5035793;28;20197;-68
2021/06/14 01:08:25;;;;;;;6.00;2.93;;;;;;;12.46;94.80;96973.19;5035603;28;20205;-67
2021/06/14 01:10:52;;;;;;;6.32;3.28;;;;;;;12.40;95.37;96979.16;5036012;28;20554;-67
2021/06/14 01:13:35;;;;;;;4.93;2.97;;;;;;;12.28;97.23;96969.94;5036853;28;20225;-67
2021/06/14 01:16:15;;;;;;;4.35;3.10;;;;;;;12.32;98.10;96971.25;5035247;28;20706;-67
2021/06/14 01:18:48;;;;;;;5.82;2.88;;;;;;;12.35;97.11;96970.09;5035343;28;20208;-67
2021/06/14 01:21:20;;;;;;;6.50;3.00;;;;;;;12.28;97.31;96964.66;5038786;28;20201;-68
2021/06/14 01:23:58;;;;;;;5.78;2.97;;;;;;;12.31;96.79;96966.97;5040632;28;20221;-68
2021/06/14 01:26:29;;;;;;;5.20;2.90;;;;;;;12.29;94.56;96955.72;5039447;28;20208;-67
2021/06/14 01:28:59;;;;;;;5.25;2.95;;;;;;;12.33;94.98;96958.84;5040009;28;20201;-67
2021/06/14 01:31:28;;;;;;;4.35;2.75;;;;;;;12.29;96.38;96954.91;5039584;28;20219;-68
2021/06/14 01:33:56;;;;;;;7.57;3.17;;;;;;;12.36;96.37;96945.31;5039446;28;20232;-68
2021/06/14 01:36:26;;;;;;;5.55;3.08;;;;;;;12.30;95.70;96936.22;5039472;28;20227;-67
2021/06/14 01:38:53;;;;;;;7.28;2.90;;;;;;;12.25;95.54;96933.28;5039430;28;20204;-67
2021/06/14 01:41:23;;;;;;;7.18;3.17;;;;;;;12.08;96.59;96927.38;5039272;28;20735;-67
2021/06/14 01:43:51;;;;;;;8.00;3.33;;;;;;;11.92;98.96;96924.81;5039451;28;20221;-67
2021/06/14 01:46:23;;;;;;;5.95;3.45;;;;;;;11.78;100.00;96930.78;5038838;28;20201;-67
2021/06/14 01:48:51;;;;;;;7.07;3.70;;;;;;;11.68;100.00;96930.97;5039588;28;20207;-68
2021/06/14 01:51:20;;;;;;;7.32;3.80;;;;;;;11.65;100.00;96927.81;5038841;28;20205;-67
2021/06/14 01:54:02;;;;;;;8.40;3.57;;;;;;;11.63;100.00;96921.88;5039210;28;20217;-67
2021/06/14 01:56:30;;;;;;;10.00;4.20;;;;;;;11.53;100.00;96925.69;5038620;28;20288;-67
2021/06/14 01:58:59;;;;;;;7.37;3.37;;;;;;;11.65;100.00;96922.53;5039532;28;20197;-67
2021/06/14 02:01:29;;;;;;;5.83;3.70;;;;;;;11.66;100.00;96921.56;5038959;28;20206;-67
2021/06/14 02:03:56;;;;;;;7.77;4.27;;;;;;;11.54;100.00;96925.50;5036697;28;20728;-67
2021/06/14 02:06:25;;;;;;;8.57;4.17;;;;;;;11.43;100.00;96923.19;5038402;28;20232;-67
2021/06/14 02:08:51;;;;;;;10.25;4.15;;;;;;;11.46;100.00;96922.84;5038876;28;20231;-67
2021/06/14 02:11:19;;;;;;;8.43;4.03;;;;;;;11.43;100.00;96917.06;5038969;28;20294;-67
2021/06/14 02:13:46;;;;;;;7.07;4.10;;;;;;;11.38;100.00;96925.50;5039175;28;20225;-67
2021/06/14 02:16:15;;;;;;;5.47;3.90;;;;;;;11.48;100.00;96920.88;5037359;28;20235;-68
2021/06/14 02:18:43;;;;;;;6.80;3.90;;;;;;;11.67;100.00;96925.81;5039321;28;20197;-67
2021/06/14 02:21:10;;;;;;;7.85;3.97;;;;;;;11.75;100.00;96912.63;5038526;28;21162;-67
2021/06/14 02:23:37;;;;;;;7.40;3.60;;;;;;;11.98;100.00;96921.50;5038927;28;20217;-67
2021/06/14 02:26:04;;;;;;;6.63;3.90;;;;;;;11.95;99.49;96927.09;5038499;28;20584;-67
2021/06/14 02:28:30;;;;;;;5.00;3.30;;;;;;;11.91;98.16;96923.16;5039014;28;20204;-68
2021/06/14 02:30:57;;;;;;;10.05;4.03;;;;;;;11.88;99.46;96918.22;5038584;28;20200;-67
2021/06/14 02:33:23;;;;;;;8.07;3.87;;;;;;;11.91;98.69;96923.16;5037557;28;20225;-68
2021/06/14 02:35:52;;;;;;;6.78;3.85;;;;;;;11.95;98.44;96913.88;5038130;28;20202;-67
2021/06/14 02:38:20;;;;;;;9.67;3.60;;;;;;;11.89;99.16;96915.41;5038045;28;20207;-68
2021/06/14 02:40:46;;;;;;;6.95;3.53;;;;;;;11.85;99.86;96918.53;5038691;28;20300;-67
2021/06/14 02:43:13;;;;;;;7.33;4.10;;;;;;;11.88;100.00;96916.38;5038186;28;20205;-67
2021/06/14 02:45:41;;;;;;;6.33;4.03;;;;;;;11.82;100.00;96919.69;5037345;28;20224;-67
2021/06/14 02:48:09;;;;;;;7.18;4.20;;;;;;;11.85;100.00;96916.72;5038204;28;20583;-67
2021/06/14 02:50:37;;;;;;;7.97;3.83;;;;;;;11.85;99.20;96915.88;5038580;28;20205;-67
2021/06/14 02:53:11;;;;;;;5.75;3.30;;;;;;;11.86;98.83;96917.53;5037858;28;21079;-68
2021/06/14 02:55:53;;;;;;;6.90;3.97;;;;;;;11.81;97.11;96917.22;5037463;28;20619;-67
2021/06/14 02:58:25;;;;;;;7.50;3.70;;;;;;;11.68;97.66;96917.75;5038514;28;20243;-67
2021/06/14 03:00:52;;;;;;;10.40;3.70;;;;;;;11.61;99.42;96908.84;5034657;28;20569;-67
2021/06/14 03:03:18;;;;;;;6.33;3.73;;;;;;;11.59;99.61;96908.16;5038007;28;20202;-67
2021/06/14 03:05:45;;;;;;;6.40;3.80;;;;;;;11.55;99.32;96914.78;5037381;28;20671;-67
2021/06/14 03:08:16;;;;;;;7.65;4.47;;;;;;;11.58;100.00;96922.38;5038142;28;20205;-67
2021/06/14 03:10:43;;;;;;;6.72;4.20;;;;;;;11.62;100.00;96920.22;5037807;28;20208;-68
2021/06/14 03:13:09;;;;;;;10.60;4.40;;;;;;;11.67;100.00;96912.63;5037960;28;20599;-67
2021/06/14 03:15:37;;;;;;;8.75;4.43;;;;;;;11.55;100.00;96921.88;5037132;28;20240;-67
2021/06/14 03:18:04;;;;;;;10.50;4.90;;;;;;;11.42;100.00;96920.69;5037544;28;20217;-67
2021/06/14 03:20:32;;;;;;;10.53;4.77;;;;;;;11.45;100.00;96926.47;5037730;28;20204;-67
2021/06/14 03:22:59;;;;;;;7.07;4.50;;;;;;;11.53;100.00;96928.31;5038120;28;20221;-67
2021/06/14 03:25:28;;;;;;;9.40;4.57;;;;;;;11.60;100.00;96917.75;5037096;28;20669;-67
2021/06/14 03:27:56;;;;;;;10.80;5.22;;;;;;;11.63;100.00;96919.22;5037438;28;20205;-68
2021/06/14 03:30:24;;;;;;;10.13;5.30;;;;;;;11.62;100.00;96936.06;5037428;28;20216;-68
2021/06/14 03:32:53;;;;;;;9.27;5.63;;;;;;;11.66;100.00;96935.56;5036921;28;20208;-67
2021/06/14 03:35:22;;;;;;;7.80;4.70;;;;;;;11.81;100.00;96922.50;5036452;28;20217;-67
2021/06/14 03:37:50;;;;;;;7.88;4.68;;;;;;;11.80;100.00;96934.03;5038411;28;20208;-67
2021/06/14 03:40:17;;;;;;;11.07;4.80;;;;;;;11.81;100.00;96933.06;5037403;28;20295;-68
2021/06/14 03:42:46;;;;;;;8.20;4.57;;;;;;;11.66;99.66;96935.56;5036754;28;20201;-67
2021/06/14 03:45:13;;;;;;;7.57;4.50;;;;;;;11.72;100.00;96939.34;5036417;28;21105;-67
2021/06/14 03:47:40;;;;;;;8.27;5.32;;;;;;;11.74;100.00;96938.19;5037364;28;20197;-67
2021/06/14 03:50:09;;;;;;;11.00;5.20;;;;;;;11.80;100.00;96934.03;5037308;28;20213;-68
2021/06/14 03:52:42;;;;;;;9.27;4.63;;;;;;;11.87;100.00;96937.69;5037590;28;20655;-67
2021/06/14 03:55:09;;;;;;;9.73;5.15;;;;;;;11.95;100.00;96940.31;5036153;28;20608;-67
2021/06/14 03:57:36;;;;;;;10.85;4.93;;;;;;;12.08;100.00;96937.94;5037402;28;20209;-68
2021/06/14 04:00:06;;;;;;;8.80;5.65;;;;;;;12.14;100.00;96937.28;5036850;28;20917;-68
2021/06/14 04:02:33;;;;;;;8.60;4.82;;;;;;;12.24;100.00;96934.28;5036750;28;20197;-67
2021/06/14 04:05:00;;;;;;;12.73;4.90;;;;;;;12.35;100.00;96939.19;5037009;28;20233;-67
2021/06/14 04:07:27;;;;;;;9.82;5.20;;;;;;;12.31;100.00;96935.25;5036820;28;20217;-67
2021/06/14 04:09:58;;;;;;;5.88;4.30;;;;;;;12.28;100.00;96932.97;5036466;28;20678;-67
2021/06/14 04:12:24;;;;;;;7.97;4.65;;;;;;;12.37;100.00;96933.72;5036940;28;20212;-67
2021/06/14 04:14:51;;;;;;;11.45;4.70;;;;;;;12.40;100.00;96926.28;5036670;28;20639;-68
2021/06/14 04:17:19;;;;;;;11.70;5.07;;;;;;;12.48;100.00;96928.91;5036055;28;20201;-68
2021/06/14 04:19:45;;;;;;;11.52;4.38;;;;;;;12.60;100.00;96916.13;5036578;28;20201;-68
2021/06/14 04:22:12;;;;;;;11.18;4.55;;;;;;;12.59;100.00;96910.03;5036710;28;20205;-68
2021/06/14 04:24:38;;;;;;;11.18;5.60;;;;;;;12.46;100.00;96909.75;5036671;28;20723;-68
2021/06/14 04:27:07;;;;;;;7.97;5.40;;;;;;;12.38;100.00;96912.41;5035665;28;20205;-67
2021/06/14 04:29:33;;;;;;;12.52;6.30;;;;;;;12.44;100.00;96906.44;5036827;28;20204;-67
2021/06/14 04:32:00;;;;;;;14.10;5.32;;;;;;;12.51;100.00;96906.56;5036785;28;20205;-68
2021/06/14 04:34:29;;;;;;;11.23;6.15;;;;;;;12.54;100.00;96909.72;5036084;28;20232;-68
2021/06/14 04:36:55;;;;;;;8.60;5.55;;;;;;;12.55;100.00;96903.44;5035486;28;20559;-68
2021/06/14 04:39:22;;;;;;;13.73;5.88;;;;;;;12.60;100.00;96900.25;5036484;28;20208;-68
2021/06/14 04:41:48;;;;;;;10.75;5.60;;;;;;;12.72;100.00;96888.31;5036103;28;20693;-67
2021/06/14 04:44:15;;;;;;;11.65;6.07;;;;;;;12.86;100.00;96896.34;5036189;28;20225;-70
2021/06/14 04:46:41;;;;;;;16.00;6.05;;;;;;;12.99;100.00;96889.47;5036034;28;20208;-68
2021/06/14 04:49:07;;;;;;;12.50;5.72;;;;;;;13.12;100.00;96881.78;5036049;28;20201;-67
2021/06/14 04:51:35;;;;;;;11.00;5.70;;;;;;;13.30;100.00;96889.41;5035893;28;20212;-68
2021/06/14 04:54:02;;;;;;;10.02;5.57;;;;;;;13.42;100.00;96886.16;5036673;28;20240;-68
2021/06/14 04:56:28;;;;;;;10.35;5.25;;;;;;;13.52;100.00;96895.50;5038318;28;20212;-68
2021/06/14 04:58:55;;;;;;;13.75;5.88;;;;;;;13.60;100.00;96897.25;5039859;28;20661;-68
2021/06/14 05:01:21;;;;;;;9.20;5.22;;;;;;;13.73;99.34;96889.50;5040715;28;20201;-68
2021/06/14 05:03:48;;;;;;;10.75;5.65;;;;;;;13.77;98.48;96888.97;5040569;28;20217;-67
2021/06/14 05:06:14;;;;;;;9.65;5.05;;;;;;;13.78;98.27;96885.31;5038874;28;20197;-67
2021/06/14 05:08:42;;;;;;;9.00;4.50;;;;;;;13.82;97.65;96886.59;5040247;28;20197;-67
2021/06/14 05:11:09;;;;;;;9.85;4.90;;;;;;;13.80;97.96;96887.78;5040115;28;20295;-67
2021/06/14 05:13:35;;;;;;;8.68;5.05;;;;;;;13.83;98.45;96893.53;5039555;28;20201;-67
2021/06/14 05:16:02;;;;;;;12.90;5.05;;;;;;;13.87;98.16;96884.22;5039168;28;20223;-67
2021/06/14 05:18:28;;;;;;;10.20;4.93;;;;;;;13.89;96.82;96889.34;5039722;28;20205;-67
2021/06/14 05:20:55;;;;;;;11.15;5.25;;;;;;;14.01;97.74;96891.34;5039893;28;20212;-67
2021/06/14 05:23:21;;;;;;;12.52;5.10;;;;;;;14.10;97.24;96892.94;5039782;28;20205;-67
2021/06/14 05:25:49;;;;;;;9.68;5.28;;;;;;;14.21;97.09;96897.81;5039206;28;20216;-68
2021/06/14 05:28:16;;;;;;;12.32;5.20;;;;;;;14.23;97.93;96899.25;5039748;28;20208;-68
2021/06/14 05:30:42;;;;;;;9.73;5.82;;;;;;;14.38;98.94;96893.94;5039403;28;20702;-68
2021/06/14 05:33:09;;;;;;;9.25;4.72;;;;;;;14.49;95.99;96896.13;5040206;28;20230;-68
2021/06/14 05:35:35;;;;;;;8.98;4.65;;;;;;;14.53;90.23;96897.41;5038693;28;20866;-68
2021/06/14 05:38:02;;;;;;;8.52;4.43;;;;;;;14.60;88.18;96898.31;5039168;28;20205;-68
2021/06/14 05:40:29;;;;;;;10.93;4.20;;;;;;;14.62;88.47;96891.00;5039503;28;20204;-68
2021/06/14 05:42:56;;;;;;;8.35;4.38;;;;;;;14.60;87.84;96891.19;5039659;28;20213;-68
2021/06/14 05:45:23;;;;;;;11.57;4.75;;;;;;;14.65;88.50;96880.84;5038836;28;20228;-68
2021/06/14 05:47:49;;;;;;;9.15;4.47;;;;;;;14.66;87.79;96874.50;5039603;28;21032;-68
2021/06/14 05:50:16;;;;;;;8.43;4.43;;;;;;;14.70;90.18;96884.56;5038915;28;20212;-67
2021/06/14 05:52:43;;;;;;;10.10;4.78;;;;;;;14.84;89.44;96880.22;5039567;28;20208;-67
2021/06/14 05:55:10;;;;;;;10.07;4.40;;;;;;;14.90;88.74;96884.78;5038430;28;20229;-68
2021/06/14 05:57:37;;;;;;;9.27;4.45;;;;;;;15.04;91.53;96873.31;5039429;28;20201;-67
2021/06/14 06:00:07;;;;;;;9.52;4.22;;;;;;;15.16;88.65;96879.75;5039069;28;20255;-68
2021/06/14 06:02:34;;;;;;;9.00;4.18;;;;;;;15.27;85.67;96882.75;5039564;28;20201;-67
2021/06/14 06:05:00;;;;;;;10.30;4.05;;;;;;;15.38;85.20;96882.25;5038432;28;20212;-68
2021/06/14 06:07:27;;;;;;;8.90;4.53;;;;;;;15.45;86.85;96880.47;5037903;28;20203;-67
2021/06/14 06:09:53;;;;;;;9.82;4.00;;;;;;;15.48;84.43;96875.59;5039598;28;20917;-67
2021/06/14 06:12:21;;;;;;;10.35;4.20;;;;;;;15.50;85.87;96883.38;5038405;28;20205;-67
2021/06/14 06:14:48;;;;;;;6.30;4.10;;;;;;;15.66;85.77;96873.28;5038363;28;20228;-68
2021/06/14 06:17:16;;;;;;;9.73;4.25;;;;;;;15.77;86.15;96879.91;5039330;28;20204;-70
2021/06/14 06:19:42;;;;;;;8.02;4.20;;;;;;;15.92;86.31;96868.16;5039082;28;20239;-70
2021/06/14 06:22:09;;;;;;;7.25;3.90;;;;;;;15.99;85.29;96877.81;5038567;28;20212;-69
2021/06/14 06:24:35;;;;;;;7.13;3.97;;;;;;;16.17;83.47;96880.78;5039236;28;20232;-69
2021/06/14 06:27:02;;;;;;;10.80;4.22;;;;;;;16.25;82.76;96872.66;5038251;28;20205;-69
2021/06/14 06:29:28;;;;;;;10.45;4.15;;;;;;;16.27;82.08;96875.97;5038479;28;20208;-72
2021/06/14 06:31:55;;;;;;;9.38;3.85;;;;;;;16.42;81.36;96867.84;5038875;28;20201;-69
2021/06/14 06:34:23;;;;;;;6.75;3.70;;;;;;;16.60;80.29;96871.66;5038310;28;20596;-71
2021/06/14 06:36:50;;;;;;;7.28;3.90;;;;;;;16.65;84.54;96871.88;5037598;28;20201;-70
2021/06/14 06:39:16;;;;;;;7.07;3.70;;;;;;;16.76;80.36;96879.28;5038506;28;20198;-72
2021/06/14 06:41:43;;;;;;;10.55;3.78;;;;;;;16.79;80.80;96878.84;5038237;28;20585;-69
2021/06/14 06:44:10;;;;;;;8.43;3.50;;;;;;;16.83;82.68;96874.81;5036441;28;20225;-70
2021/06/14 06:46:36;;;;;;;10.07;3.60;;;;;;;16.96;76.67;96880.97;5037884;28;20205;-69
2021/06/14 06:49:03;;;;;;;7.07;3.72;;;;;;;17.17;84.38;96873.66;5035709;28;20208;-70
2021/06/14 06:51:31;;;;;;;6.90;3.47;;;;;;;17.24;75.65;96876.34;5037373;28;20205;-69
2021/06/14 06:54:11;;;;;;;9.80;3.40;;;;;;;17.29;75.79;96872.06;5038386;28;20224;-69
2021/06/14 06:56:39;;;;;;;9.10;3.53;;;;;;;17.46;75.85;96880.50;5037339;28;20578;-69
2021/06/14 06:59:05;;;;;;;6.70;3.35;;;;;;;17.64;73.56;96865.53;5037625;28;20217;-69
2021/06/14 07:01:32;;;;;;;6.50;3.60;;;;;;;17.76;73.42;96863.91;5037864;28;20633;-69
2021/06/14 07:03:58;;;;;;;5.50;3.25;;;;;;;17.76;72.94;96866.56;5037629;28;20224;-69
2021/06/14 07:06:25;;;;;;;9.65;3.47;;;;;;;17.89;71.93;96870.03;5036434;28;20570;-68
2021/06/14 07:08:55;;;;;;;10.60;3.70;;;;;;;17.95;73.13;96869.22;5037275;28;20205;-68
2021/06/14 07:11:21;;;;;;;10.93;3.70;;;;;;;18.10;73.19;96863.63;5036999;28;20209;-69
2021/06/14 07:13:47;;;;;;;6.68;2.90;;;;;;;18.23;74.34;96858.28;5036891;28;20227;-69
2021/06/14 07:16:14;;;;;;;7.60;3.40;;;;;;;18.19;71.50;96857.09;5032733;28;20224;-69
2021/06/14 07:18:40;;;;;;;8.00;3.28;;;;;;;18.34;69.63;96863.81;5036912;28;20613;-69
2021/06/14 07:21:07;;;;;;;8.13;3.85;;;;;;;18.36;69.18;96856.44;5035216;28;20209;-69
2021/06/14 07:23:33;;;;;;;6.97;3.20;;;;;;;18.51;70.46;96854.34;5036758;28;20205;-69
2021/06/14 07:26:01;;;;;;;6.70;2.67;;;;;;;18.49;68.29;96857.19;5033995;28;20197;-69
2021/06/14 07:28:28;;;;;;;6.93;3.47;;;;;;;18.63;70.68;96852.63;5037317;28;20216;-69
2021/06/14 07:30:54;;;;;;;8.07;3.28;;;;;;;18.84;68.83;96849.66;5036470;28;20201;-69
2021/06/14 07:33:21;;;;;;;3.75;2.50;;;;;;;18.84;68.50;96850.50;5037910;28;20893;-69
2021/06/14 07:35:47;;;;;;;6.47;2.92;;;;;;;19.07;64.58;96850.81;5036174;28;20217;-69
2021/06/14 07:38:15;;;;;;;13.90;3.30;;;;;;;19.12;68.68;96843.78;5036477;28;20200;-69
2021/06/14 07:40:41;;;;;;;6.85;3.17;;;;;;;19.20;66.81;96837.38;5036467;28;20197;-69
2021/06/14 07:43:12;;;;;;;8.02;2.90;;;;;;;19.32;66.67;96844.50;5037501;28;20572;-69
2021/06/14 07:45:38;;;;;;;6.93;3.03;;;;;;;19.40;62.16;96848.72;5036302;28;20221;-69
2021/06/14 07:48:05;;;;;;;9.27;2.83;;;;;;;19.34;63.17;96841.59;5036179;28;20228;-69
2021/06/14 07:50:33;;;;;;;9.48;2.90;;;;;;;19.38;65.40;96845.47;5036632;28;20208;-69
2021/06/14 07:53:00;;;;;;;8.20;2.80;;;;;;;19.48;67.55;96848.47;5036234;28;20193;-69
2021/06/14 07:55:27;;;;;;;6.43;3.20;;;;;;;19.59;68.50;96840.59;5035609;28;20412;-69
2021/06/14 07:57:54;;;;;;;11.25;3.85;;;;;;;19.69;66.49;96841.72;5036358;28;20207;-69
2021/06/14 08:00:23;;;;;;;8.40;3.15;;;;;;;19.74;64.12;96843.72;5036023;28;20778;-69
2021/06/14 08:02:49;;;;;;;7.60;3.03;;;;;;;19.76;64.67;96844.34;5036304;28;20949;-69
2021/06/14 08:05:16;;;;;;;14.82;3.45;;;;;;;19.86;64.76;96842.81;5035590;28;20239;-69
2021/06/14 08:07:43;;;;;;;5.22;2.83;;;;;;;19.86;62.97;96848.16;5035835;28;20201;-69
2021/06/14 08:10:15;;;;;;;8.93;3.30;;;;;;;19.88;64.68;96847.94;5035743;28;20204;-69
2021/06/14 08:12:44;;;;;;;6.05;2.83;;;;;;;20.01;64.97;96854.03;5036271;28;20208;-69
2021/06/14 08:15:13;;;;;;;6.18;3.53;;;;;;;20.02;62.02;96847.63;5035469;28;20229;-69
2021/06/14 08:17:41;;;;;;;6.60;3.13;;;;;;;20.27;64.70;96843.03;5036283;28;20205;-69
2021/06/14 08:20:12;;;;;;;5.72;3.05;;;;;;;20.11;65.12;96835.59;5035830;28;20572;-69
2021/06/14 08:25:23;;;;;;;10.43;3.50;;;;;;;20.48;60.56;96830.03;5034462;28;20300;-69
2021/06/14 08:27:49;;;;;;;10.02;3.20;;;;;;;20.52;58.16;96833.91;5035616;28;20197;-69
2021/06/14 08:30:18;;;;;;;7.72;2.80;;;;;;;20.53;60.65;96835.53;5034502;28;20197;-69
2021/06/14 08:32:48;;;;;;;11.20;3.10;;;;;;;20.61;60.42;96837.06;5035659;28;20197;-69
2021/06/14 08:35:18;;;;;;;15.55;3.40;;;;;;;20.94;62.17;96833.81;5034452;28;20224;-69
2021/06/14 08:37:47;;;;;;;6.20;2.75;;;;;;;20.99;58.08;96835.78;5035420;28;20667;-69
2021/06/14 08:40:16;;;;;;;8.20;3.00;;;;;;;21.04;57.08;96833.25;5036256;28;20490;-69
2021/06/14 08:42:43;;;;;;;5.15;2.70;;;;;;;21.12;59.41;96828.41;5035650;28;20886;-69
2021/06/14 08:45:11;;;;;;;46.25;5.10;;;;;;;21.21;62.94;96827.03;5034951;28;20220;-69
2021/06/14 08:47:40;;;;;;;13.75;3.03;;;;;;;21.26;59.01;96827.16;5036455;28;20217;-69
2021/06/14 08:50:11;;;;;;;12.32;3.05;;;;;;;21.21;58.54;96826.22;5036835;28;20212;-69
2021/06/14 08:52:39;;;;;;;8.27;2.53;;;;;;;21.24;55.44;96829.25;5034384;28;20208;-69
2021/06/14 08:55:08;;;;;;;12.27;2.72;;;;;;;21.42;57.39;96820.31;5033922;28;20237;-69
2021/06/14 08:57:34;;;;;;;5.38;2.55;;;;;;;21.72;56.46;96816.56;5035434;28;20212;-69
2021/06/14 09:00:01;;;;;;;7.35;2.95;;;;;;;21.67;56.53;96814.56;5035138;28;20223;-69
2021/06/14 09:02:27;;;;;;;6.32;2.75;;;;;;;21.84;55.02;96820.91;5035751;28;20213;-69
2021/06/14 09:04:53;;;;;;;5.50;2.80;;;;;;;21.97;55.91;96815.31;5034764;28;20221;-69
2021/06/14 09:07:21;;;;;;;8.00;3.08;;;;;;;21.95;56.94;96801.28;5034877;28;20702;-69
2021/06/14 09:09:49;;;;;;;12.07;3.25;;;;;;;22.17;57.38;96805.84;5035096;28;20201;-69
2021/06/14 09:12:15;;;;;;;8.88;2.88;;;;;;;22.07;57.32;96805.59;5035148;28;20201;-69
2021/06/14 09:14:43;;;;;;;9.73;3.15;;;;;;;21.99;56.68;96804.31;5034570;28;20714;-68
2021/06/14 09:17:12;;;;;;;7.97;2.97;;;;;;;22.01;58.33;96808.41;5034947;28;20209;-69
2021/06/14 09:19:41;;;;;;;5.88;3.00;;;;;;;22.23;57.58;96812.13;5035095;28;20206;-69
2021/06/14 09:22:13;;;;;;;11.68;2.90;;;;;;;22.30;56.31;96802.94;5035603;28;20205;-69
2021/06/14 09:24:58;;;;;;;8.07;3.17;;;;;;;22.43;54.38;96810.72;5034453;28;20306;-69
2021/06/14 09:27:33;;;;;;;7.93;2.70;;;;;;;22.60;52.45;96800.88;5034594;28;20293;-69
2021/06/14 09:30:11;;;;;;;6.63;2.63;;;;;;;22.59;51.71;96801.91;5034644;28;20197;-69
2021/06/14 09:32:50;;;;;;;6.05;2.72;;;;;;;22.64;54.57;96804.72;5035451;28;20197;-69
2021/06/14 09:35:17;;;;;;;5.45;2.65;;;;;;;22.66;52.00;96808.00;5033172;28;20314;-69
2021/06/14 09:37:43;;;;;;;6.75;2.72;;;;;;;22.59;51.27;96807.28;5034197;28;20464;-69
2021/06/14 09:40:12;;;;;;;12.15;2.78;;;;;;;22.77;53.66;96807.97;5034371;28;20327;-69
2021/06/14 09:42:40;;;;;;;8.10;2.58;;;;;;;22.86;53.56;96801.16;5034525;28;20202;-69
2021/06/14 09:45:08;;;;;;;5.78;2.65;;;;;;;22.95;52.92;96796.19;5036539;28;20567;-69
2021/06/14 09:47:35;;;;;;;7.38;2.60;;;;;;;22.67;54.57;96800.72;5038239;28;20212;-69
2021/06/14 09:50:06;;;;;;;9.25;3.33;;;;;;;22.94;55.37;96791.91;5037560;28;20208;-69
2021/06/14 09:52:32;;;;;;;6.30;2.60;;;;;;;23.10;54.33;96801.88;5037943;28;20201;-69
2021/06/14 09:55:07;;;;;;;8.73;2.88;;;;;;;23.16;52.31;96801.75;5038218;28;20225;-69
2021/06/14 09:57:36;;;;;;;7.72;2.60;;;;;;;23.50;52.84;96798.88;5038348;28;20209;-69
2021/06/14 10:00:08;;;;;;;8.57;2.70;;;;;;;23.63;50.45;96792.34;5038254;28;20212;-69
2021/06/14 10:02:35;;;;;;;10.43;3.15;;;;;;;23.52;50.85;96801.31;5038171;28;20209;-69
2021/06/14 10:05:02;;;;;;;6.22;2.40;;;;;;;24.20;50.73;96794.63;5038266;28;20221;-69
2021/06/14 10:07:28;;;;;;;7.57;2.25;;;;;;;24.20;48.20;96797.31;5035381;28;20748;-69
2021/06/14 10:09:55;;;;;;;5.82;2.80;;;;;;;23.98;48.86;96783.78;5038406;28;20201;-69
2021/06/14 10:12:24;;;;;;;6.38;2.45;;;;;;;23.76;47.99;96786.66;5038207;28;20201;-69
2021/06/14 10:14:57;;;;;;;6.80;2.60;;;;;;;23.66;48.14;96786.47;5037658;28;20233;-69
2021/06/14 10:17:32;;;;;;;8.23;2.88;;;;;;;23.71;48.37;96786.59;5036437;28;20764;-69
2021/06/14 10:20:15;;;;;;;6.82;3.00;;;;;;;23.73;49.73;96782.59;5038845;28;20208;-69
2021/06/14 10:22:43;;;;;;;5.47;2.50;;;;;;;23.52;47.19;96772.53;5037670;28;20205;-69
2021/06/14 10:25:11;;;;;;;6.63;2.80;;;;;;;23.40;51.82;96770.97;5037100;28;20229;-69
2021/06/14 10:27:38;;;;;;;9.00;2.53;;;;;;;23.59;51.23;96769.69;5036903;28;20198;-69
2021/06/14 10:30:08;;;;;;;7.10;2.65;;;;;;;23.56;47.40;96773.69;5037532;28;20702;-69
2021/06/14 10:32:37;;;;;;;6.55;2.85;;;;;;;23.75;47.29;96768.88;5037166;28;20209;-69
2021/06/14 10:35:04;;;;;;;2.85;2.20;;;;;;;23.95;50.11;96765.44;5036727;28;20216;-69
2021/06/14 10:37:34;;;;;;;7.72;2.33;;;;;;;23.72;47.70;96764.81;5037220;28;20245;-69
2021/06/14 10:40:01;;;;;;;9.48;2.85;;;;;;;23.92;47.14;96762.44;5036912;28;20205;-69
2021/06/14 10:42:28;;;;;;;4.32;2.60;;;;;;;24.05;47.87;96759.38;5038044;28;20201;-69
2021/06/14 10:44:54;;;;;;;5.88;2.72;;;;;;;24.11;47.97;96761.91;5038412;28;20232;-70
2021/06/14 10:47:22;;;;;;;6.53;2.90;;;;;;;24.23;45.14;96757.22;5037745;28;20583;-69
2021/06/14 10:49:55;;;;;;;6.28;2.70;;;;;;;24.35;47.32;96749.00;5035457;28;20201;-69
2021/06/14 10:52:22;;;;;;;5.65;2.30;;;;;;;24.46;46.97;96750.81;5032539;28;20295;-70
2021/06/14 10:54:48;;;;;;;8.65;2.50;;;;;;;24.66;47.83;96739.19;5036484;28;20224;-69
2021/06/14 10:57:15;;;;;;;5.03;2.35;;;;;;;24.84;45.81;96735.38;5035894;28;20217;-70
2021/06/14 10:59:44;;;;;;;4.57;2.33;;;;;;;24.88;46.88;96734.59;5037564;28;20224;-69
2021/06/14 11:02:13;;;;;;;6.50;2.63;;;;;;;24.92;48.47;96729.50;5036560;28;20205;-69
2021/06/14 11:04:42;;;;;;;7.85;2.60;;;;;;;25.17;45.14;96723.31;5036443;28;21110;-69
2021/06/14 11:07:09;;;;;;;6.72;2.53;;;;;;;25.10;46.66;96716.53;5035855;28;20293;-69
2021/06/14 11:09:39;;;;;;;4.70;2.50;;;;;;;25.03;43.73;96709.69;5037484;28;20201;-69
2021/06/14 11:12:07;;;;;;;4.40;2.25;;;;;;;25.09;43.71;96708.66;5036135;28;21090;-69
2021/06/14 11:14:37;;;;;;;8.00;2.60;;;;;;;25.14;45.63;96701.47;5037126;28;20252;-70
2021/06/14 11:17:23;;;;;;;5.15;2.88;;;;;;;24.98;45.92;96699.63;5035823;28;20213;-69
2021/06/14 11:19:53;;;;;;;5.45;2.33;;;;;;;25.11;44.42;96701.94;5037027;28;21027;-69
2021/06/14 11:22:20;;;;;;;6.20;2.20;;;;;;;25.17;43.84;96701.72;5036565;28;20208;-69
2021/06/14 11:24:48;;;;;;;5.40;2.60;;;;;;;25.26;44.98;96694.78;5036468;28;20228;-69
2021/06/14 11:27:15;;;;;;;4.18;2.22;;;;;;;25.42;45.94;96693.88;5035408;28;20198;-69
2021/06/14 11:29:44;;;;;;;4.70;2.13;;;;;;;25.59;39.76;96688.31;5036324;28;20670;-69
2021/06/14 11:32:17;;;;;;;6.38;2.30;;;;;;;25.75;42.71;96690.91;5036229;28;20671;-69
2021/06/14 11:34:46;;;;;;;7.38;2.50;;;;;;;25.71;43.54;96681.66;5036261;28;20546;-69
2021/06/14 11:37:14;;;;;;;3.85;2.40;;;;;;;25.82;43.01;96681.47;5034961;28;20316;-69